sensor_id;sensor_type;location;lat;lon;timestamp;P1;durP1;ratioP1;P2;durP2;ratioP2
3589;SDS011;1809;48.470;9.226;2022-10-31T00:02:16;9.10;;;4.10;;
3589;SDS011;1809;48.470;9.226;2022-10-31T00:04:41;5.70;;;3.50;;
3589;SDS011;1809;48.470;9.226;2022-10-31T00:07:06;12.13;;;4.13;;
3589;SDS011;1809;48.470;9.226;2022-10-31T00:09:32;5.93;;;3.60;;
3589;SDS011;1809;48.470;9.226;2022-10-31T00:11:57;11.73;;;3.77;;
3589;SDS011;1809;48.470;9.226;2022-10-31T00:14:22;4.10;;;3.63;;
3589;SDS011;1809;48.470;9.226;2022-10-31T00:16:47;11.10;;;3.93;;
3589;SDS011;1809;48.470;9.226;2022-10-31T00:19:13;3.23;;;2.93;;
3589;SDS011;1809;48.470;9.226;2022-10-31T00:21:38;7.13;;;2.77;;
3589;SDS011;1809;48.470;9.226;2022-10-31T00:24:04;5.20;;;3.60;;
3589;SDS011;1809;48.470;9.226;2022-10-31T00:26:30;10.13;;;3.63;;
3589;SDS011;1809;48.470;9.226;2022-10-31T00:28:56;6.67;;;3.63;;
3589;SDS011;1809;48.470;9.226;2022-10-31T00:31:23;7.77;;;4.00;;
3589;SDS011;1809;48.470;9.226;2022-10-31T00:33:48;3.93;;;3.53;;
3589;SDS011;1809;48.470;9.226;2022-10-31T00:36:14;7.93;;;3.53;;
3589;SDS011;1809;48.470;9.226;2022-10-31T00:38:41;10.47;;;3.93;;
3589;SDS011;1809;48.470;9.226;2022-10-31T00:41:08;9.77;;;3.80;;
3589;SDS011;1809;48.470;9.226;2022-10-31T00:43:34;7.50;;;2.77;;
3589;SDS011;1809;48.470;9.226;2022-10-31T00:45:59;4.93;;;3.77;;
3589;SDS011;1809;48.470;9.226;2022-10-31T00:48:25;11.77;;;4.10;;
3589;SDS011;1809;48.470;9.226;2022-10-31T00:50:50;15.17;;;3.97;;
3589;SDS011;1809;48.470;9.226;2022-10-31T00:53:16;6.87;;;3.60;;
3589;SDS011;1809;48.470;9.226;2022-10-31T00:55:41;8.60;;;3.73;;
3589;SDS011;1809;48.470;9.226;2022-10-31T00:58:06;7.43;;;3.27;;
3589;SDS011;1809;48.470;9.226;2022-10-31T01:00:31;15.00;;;4.13;;
3589;SDS011;1809;48.470;9.226;2022-10-31T01:02:57;10.47;;;4.27;;
3589;SDS011;1809;48.470;9.226;2022-10-31T01:05:22;7.87;;;3.90;;
3589;SDS011;1809;48.470;9.226;2022-10-31T01:07:47;5.87;;;3.97;;
3589;SDS011;1809;48.470;9.226;2022-10-31T01:10:13;6.33;;;4.00;;
3589;SDS011;1809;48.470;9.226;2022-10-31T01:12:39;11.63;;;3.90;;
3589;SDS011;1809;48.470;9.226;2022-10-31T01:15:06;11.10;;;4.50;;
3589;SDS011;1809;48.470;9.226;2022-10-31T01:17:33;10.17;;;4.00;;
3589;SDS011;1809;48.470;9.226;2022-10-31T01:19:59;4.20;;;3.80;;
3589;SDS011;1809;48.470;9.226;2022-10-31T01:22:24;11.10;;;4.10;;
3589;SDS011;1809;48.470;9.226;2022-10-31T01:24:49;11.97;;;3.87;;
3589;SDS011;1809;48.470;9.226;2022-10-31T01:27:15;4.70;;;3.83;;
3589;SDS011;1809;48.470;9.226;2022-10-31T01:29:40;8.70;;;4.00;;
3589;SDS011;1809;48.470;9.226;2022-10-31T01:32:05;7.13;;;3.87;;
3589;SDS011;1809;48.470;9.226;2022-10-31T01:34:31;10.83;;;3.70;;
3589;SDS011;1809;48.470;9.226;2022-10-31T01:36:56;5.20;;;3.73;;
3589;SDS011;1809;48.470;9.226;2022-10-31T01:39:21;8.90;;;4.23;;
3589;SDS011;1809;48.470;9.226;2022-10-31T01:41:48;7.60;;;3.83;;
3589;SDS011;1809;48.470;9.226;2022-10-31T01:49:13;6.50;;;4.03;;
3589;SDS011;1809;48.470;9.226;2022-10-31T01:51:45;6.20;;;3.93;;
3589;SDS011;1809;48.470;9.226;2022-10-31T01:54:15;14.93;;;4.40;;
3589;SDS011;1809;48.470;9.226;2022-10-31T01:56:43;9.93;;;4.10;;
3589;SDS011;1809;48.470;9.226;2022-10-31T01:59:13;5.90;;;4.00;;
3589;SDS011;1809;48.470;9.226;2022-10-31T02:01:43;7.90;;;4.40;;
3589;SDS011;1809;48.470;9.226;2022-10-31T02:04:08;6.30;;;4.00;;
3589;SDS011;1809;48.470;9.226;2022-10-31T02:06:45;7.87;;;4.40;;
3589;SDS011;1809;48.470;9.226;2022-10-31T02:09:14;21.10;;;4.50;;
3589;SDS011;1809;48.470;9.226;2022-10-31T02:11:42;8.20;;;4.20;;
3589;SDS011;1809;48.470;9.226;2022-10-31T02:14:09;7.83;;;4.40;;
3589;SDS011;1809;48.470;9.226;2022-10-31T02:16:34;5.87;;;4.33;;
3589;SDS011;1809;48.470;9.226;2022-10-31T02:19:00;8.93;;;4.87;;
3589;SDS011;1809;48.470;9.226;2022-10-31T02:21:44;10.63;;;4.23;;
3589;SDS011;1809;48.470;9.226;2022-10-31T02:24:27;10.73;;;4.77;;
3589;SDS011;1809;48.470;9.226;2022-10-31T02:27:16;11.90;;;4.43;;
3589;SDS011;1809;48.470;9.226;2022-10-31T02:32:33;7.13;;;4.23;;
3589;SDS011;1809;48.470;9.226;2022-10-31T02:35:14;4.63;;;4.00;;
3589;SDS011;1809;48.470;9.226;2022-10-31T02:45:50;4.67;;;4.10;;
3589;SDS011;1809;48.470;9.226;2022-10-31T02:48:24;11.47;;;4.17;;
3589;SDS011;1809;48.470;9.226;2022-10-31T02:51:00;7.73;;;4.30;;
3589;SDS011;1809;48.470;9.226;2022-10-31T02:53:31;8.20;;;6.30;;
3589;SDS011;1809;48.470;9.226;2022-10-31T02:58:30;5.07;;;4.57;;
3589;SDS011;1809;48.470;9.226;2022-10-31T03:11:58;11.47;;;4.30;;
3589;SDS011;1809;48.470;9.226;2022-10-31T03:17:05;10.37;;;5.50;;
3589;SDS011;1809;48.470;9.226;2022-10-31T03:19:40;8.27;;;4.83;;
3589;SDS011;1809;48.470;9.226;2022-10-31T03:22:19;14.13;;;4.57;;
3589;SDS011;1809;48.470;9.226;2022-10-31T03:24:50;8.63;;;5.03;;
3589;SDS011;1809;48.470;9.226;2022-10-31T03:27:20;11.70;;;5.20;;
3589;SDS011;1809;48.470;9.226;2022-10-31T03:29:49;11.13;;;4.37;;
3589;SDS011;1809;48.470;9.226;2022-10-31T03:32:27;12.73;;;3.87;;
3589;SDS011;1809;48.470;9.226;2022-10-31T03:34:59;8.20;;;4.20;;
3589;SDS011;1809;48.470;9.226;2022-10-31T03:37:29;8.30;;;3.93;;
3589;SDS011;1809;48.470;9.226;2022-10-31T03:39:57;9.20;;;4.50;;
3589;SDS011;1809;48.470;9.226;2022-10-31T03:42:25;7.30;;;4.70;;
3589;SDS011;1809;48.470;9.226;2022-10-31T03:45:03;5.00;;;3.77;;
3589;SDS011;1809;48.470;9.226;2022-10-31T03:47:33;8.90;;;5.90;;
3589;SDS011;1809;48.470;9.226;2022-10-31T03:50:02;5.70;;;3.83;;
3589;SDS011;1809;48.470;9.226;2022-10-31T03:52:29;5.30;;;4.60;;
3589;SDS011;1809;48.470;9.226;2022-10-31T03:55:52;5.20;;;3.87;;
3589;SDS011;1809;48.470;9.226;2022-10-31T03:58:03;9.10;;;3.90;;
3589;SDS011;1809;48.470;9.226;2022-10-31T04:00:32;4.50;;;3.43;;
3589;SDS011;1809;48.470;9.226;2022-10-31T04:03:00;8.40;;;4.03;;
3589;SDS011;1809;48.470;9.226;2022-10-31T04:05:30;11.83;;;4.93;;
3589;SDS011;1809;48.470;9.226;2022-10-31T04:07:56;13.10;;;4.60;;
3589;SDS011;1809;48.470;9.226;2022-10-31T04:10:25;5.87;;;5.13;;
3589;SDS011;1809;48.470;9.226;2022-10-31T04:12:55;10.70;;;3.97;;
3589;SDS011;1809;48.470;9.226;2022-10-31T04:15:35;6.30;;;3.83;;
3589;SDS011;1809;48.470;9.226;2022-10-31T04:18:02;6.33;;;3.67;;
3589;SDS011;1809;48.470;9.226;2022-10-31T04:20:40;6.30;;;4.67;;
3589;SDS011;1809;48.470;9.226;2022-10-31T04:23:19;8.60;;;3.83;;
3589;SDS011;1809;48.470;9.226;2022-10-31T04:25:48;6.40;;;4.03;;
3589;SDS011;1809;48.470;9.226;2022-10-31T04:28:14;4.40;;;3.40;;
3589;SDS011;1809;48.470;9.226;2022-10-31T04:30:39;15.17;;;3.80;;
3589;SDS011;1809;48.470;9.226;2022-10-31T04:33:04;18.00;;;4.80;;
3589;SDS011;1809;48.470;9.226;2022-10-31T04:35:30;8.60;;;3.60;;
3589;SDS011;1809;48.470;9.226;2022-10-31T04:37:55;11.57;;;4.27;;
3589;SDS011;1809;48.470;9.226;2022-10-31T04:40:21;8.60;;;5.03;;
3589;SDS011;1809;48.470;9.226;2022-10-31T04:42:46;14.33;;;4.23;;
3589;SDS011;1809;48.470;9.226;2022-10-31T04:45:11;13.50;;;4.43;;
3589;SDS011;1809;48.470;9.226;2022-10-31T04:47:37;9.70;;;4.07;;
3589;SDS011;1809;48.470;9.226;2022-10-31T04:50:02;8.83;;;4.70;;
3589;SDS011;1809;48.470;9.226;2022-10-31T04:52:28;9.47;;;4.13;;
3589;SDS011;1809;48.470;9.226;2022-10-31T04:54:54;12.53;;;5.40;;
3589;SDS011;1809;48.470;9.226;2022-10-31T04:57:19;7.93;;;6.13;;
3589;SDS011;1809;48.470;9.226;2022-10-31T04:59:44;8.57;;;4.90;;
3589;SDS011;1809;48.470;9.226;2022-10-31T05:02:10;14.77;;;4.40;;
3589;SDS011;1809;48.470;9.226;2022-10-31T05:04:35;5.73;;;4.20;;
3589;SDS011;1809;48.470;9.226;2022-10-31T05:07:00;7.83;;;4.20;;
3589;SDS011;1809;48.470;9.226;2022-10-31T05:09:26;8.83;;;4.20;;
3589;SDS011;1809;48.470;9.226;2022-10-31T05:11:51;10.10;;;6.90;;
3589;SDS011;1809;48.470;9.226;2022-10-31T05:14:16;8.00;;;3.93;;
3589;SDS011;1809;48.470;9.226;2022-10-31T05:16:42;7.23;;;4.77;;
3589;SDS011;1809;48.470;9.226;2022-10-31T05:19:07;7.93;;;4.47;;
3589;SDS011;1809;48.470;9.226;2022-10-31T05:21:32;6.30;;;5.07;;
3589;SDS011;1809;48.470;9.226;2022-10-31T05:23:58;6.33;;;4.97;;
3589;SDS011;1809;48.470;9.226;2022-10-31T05:26:23;5.23;;;4.00;;
3589;SDS011;1809;48.470;9.226;2022-10-31T05:28:49;6.70;;;4.07;;
3589;SDS011;1809;48.470;9.226;2022-10-31T05:31:14;13.00;;;4.50;;
3589;SDS011;1809;48.470;9.226;2022-10-31T05:33:40;8.80;;;4.60;;
3589;SDS011;1809;48.470;9.226;2022-10-31T05:36:05;6.47;;;4.57;;
3589;SDS011;1809;48.470;9.226;2022-10-31T05:38:31;8.27;;;3.73;;
3589;SDS011;1809;48.470;9.226;2022-10-31T05:40:56;9.27;;;5.30;;
3589;SDS011;1809;48.470;9.226;2022-10-31T05:43:27;12.23;;;4.97;;
3589;SDS011;1809;48.470;9.226;2022-10-31T05:45:53;7.83;;;4.80;;
3589;SDS011;1809;48.470;9.226;2022-10-31T05:48:20;10.33;;;4.80;;
3589;SDS011;1809;48.470;9.226;2022-10-31T05:50:47;8.93;;;4.93;;
3589;SDS011;1809;48.470;9.226;2022-10-31T05:53:13;7.70;;;5.20;;
3589;SDS011;1809;48.470;9.226;2022-10-31T05:55:38;7.27;;;4.40;;
3589;SDS011;1809;48.470;9.226;2022-10-31T05:58:05;6.43;;;4.03;;
3589;SDS011;1809;48.470;9.226;2022-10-31T06:00:31;6.47;;;4.67;;
3589;SDS011;1809;48.470;9.226;2022-10-31T06:02:57;7.07;;;3.93;;
3589;SDS011;1809;48.470;9.226;2022-10-31T06:05:27;10.93;;;4.40;;
3589;SDS011;1809;48.470;9.226;2022-10-31T06:07:53;10.33;;;4.33;;
3589;SDS011;1809;48.470;9.226;2022-10-31T06:10:18;5.10;;;4.17;;
3589;SDS011;1809;48.470;9.226;2022-10-31T06:12:45;8.40;;;5.03;;
3589;SDS011;1809;48.470;9.226;2022-10-31T06:15:11;7.23;;;4.73;;
3589;SDS011;1809;48.470;9.226;2022-10-31T06:17:37;8.33;;;4.70;;
3589;SDS011;1809;48.470;9.226;2022-10-31T06:20:02;8.60;;;5.67;;
3589;SDS011;1809;48.470;9.226;2022-10-31T06:22:28;8.07;;;4.80;;
3589;SDS011;1809;48.470;9.226;2022-10-31T06:24:54;7.73;;;4.57;;
3589;SDS011;1809;48.470;9.226;2022-10-31T06:27:19;9.10;;;5.00;;
3589;SDS011;1809;48.470;9.226;2022-10-31T06:29:45;8.47;;;4.77;;
3589;SDS011;1809;48.470;9.226;2022-10-31T06:32:11;10.40;;;4.40;;
3589;SDS011;1809;48.470;9.226;2022-10-31T06:34:37;7.63;;;5.47;;
3589;SDS011;1809;48.470;9.226;2022-10-31T06:37:03;13.53;;;5.70;;
3589;SDS011;1809;48.470;9.226;2022-10-31T06:39:28;7.77;;;5.10;;
3589;SDS011;1809;48.470;9.226;2022-10-31T06:41:53;18.03;;;5.47;;
3589;SDS011;1809;48.470;9.226;2022-10-31T06:44:19;8.00;;;5.63;;
3589;SDS011;1809;48.470;9.226;2022-10-31T06:46:46;10.43;;;5.93;;
3589;SDS011;1809;48.470;9.226;2022-10-31T06:49:12;7.00;;;4.90;;
3589;SDS011;1809;48.470;9.226;2022-10-31T06:51:38;13.50;;;6.00;;
3589;SDS011;1809;48.470;9.226;2022-10-31T06:54:03;10.07;;;5.43;;
3589;SDS011;1809;48.470;9.226;2022-10-31T06:56:28;12.07;;;5.03;;
3589;SDS011;1809;48.470;9.226;2022-10-31T06:58:54;16.10;;;5.83;;
3589;SDS011;1809;48.470;9.226;2022-10-31T07:01:19;8.40;;;5.10;;
3589;SDS011;1809;48.470;9.226;2022-10-31T07:03:44;6.73;;;5.20;;
3589;SDS011;1809;48.470;9.226;2022-10-31T07:06:10;6.83;;;5.17;;
3589;SDS011;1809;48.470;9.226;2022-10-31T07:08:35;12.63;;;6.03;;
3589;SDS011;1809;48.470;9.226;2022-10-31T07:11:00;12.80;;;5.67;;
3589;SDS011;1809;48.470;9.226;2022-10-31T07:13:26;6.47;;;4.60;;
3589;SDS011;1809;48.470;9.226;2022-10-31T07:15:52;7.97;;;5.17;;
3589;SDS011;1809;48.470;9.226;2022-10-31T07:18:19;15.33;;;5.17;;
3589;SDS011;1809;48.470;9.226;2022-10-31T07:20:45;8.57;;;5.30;;
3589;SDS011;1809;48.470;9.226;2022-10-31T07:23:10;11.27;;;5.30;;
3589;SDS011;1809;48.470;9.226;2022-10-31T07:25:36;8.43;;;5.73;;
3589;SDS011;1809;48.470;9.226;2022-10-31T07:28:05;10.03;;;6.03;;
3589;SDS011;1809;48.470;9.226;2022-10-31T07:30:30;9.20;;;5.27;;
3589;SDS011;1809;48.470;9.226;2022-10-31T07:32:56;7.50;;;5.27;;
3589;SDS011;1809;48.470;9.226;2022-10-31T07:35:23;7.80;;;5.50;;
3589;SDS011;1809;48.470;9.226;2022-10-31T07:37:49;9.47;;;6.37;;
3589;SDS011;1809;48.470;9.226;2022-10-31T07:40:15;12.40;;;6.83;;
3589;SDS011;1809;48.470;9.226;2022-10-31T07:42:42;13.77;;;6.60;;
3589;SDS011;1809;48.470;9.226;2022-10-31T07:45:09;11.87;;;7.10;;
3589;SDS011;1809;48.470;9.226;2022-10-31T07:47:47;12.70;;;7.00;;
3589;SDS011;1809;48.470;9.226;2022-10-31T07:50:15;6.53;;;5.33;;
3589;SDS011;1809;48.470;9.226;2022-10-31T07:52:42;8.90;;;6.20;;
3589;SDS011;1809;48.470;9.226;2022-10-31T07:55:08;7.73;;;5.30;;
3589;SDS011;1809;48.470;9.226;2022-10-31T07:57:34;18.73;;;7.43;;
3589;SDS011;1809;48.470;9.226;2022-10-31T08:00:02;14.37;;;8.37;;
3589;SDS011;1809;48.470;9.226;2022-10-31T08:02:28;23.40;;;8.47;;
3589;SDS011;1809;48.470;9.226;2022-10-31T08:04:54;17.70;;;7.60;;
3589;SDS011;1809;48.470;9.226;2022-10-31T08:07:20;12.20;;;6.53;;
3589;SDS011;1809;48.470;9.226;2022-10-31T08:09:45;14.00;;;7.00;;
3589;SDS011;1809;48.470;9.226;2022-10-31T08:12:10;12.53;;;6.40;;
3589;SDS011;1809;48.470;9.226;2022-10-31T08:14:36;18.37;;;6.53;;
3589;SDS011;1809;48.470;9.226;2022-10-31T08:17:01;21.23;;;9.50;;
3589;SDS011;1809;48.470;9.226;2022-10-31T08:19:26;29.30;;;10.63;;
3589;SDS011;1809;48.470;9.226;2022-10-31T08:21:52;24.90;;;13.50;;
3589;SDS011;1809;48.470;9.226;2022-10-31T08:24:20;26.40;;;10.87;;
3589;SDS011;1809;48.470;9.226;2022-10-31T08:26:45;16.50;;;8.63;;
3589;SDS011;1809;48.470;9.226;2022-10-31T08:29:11;14.80;;;7.87;;
3589;SDS011;1809;48.470;9.226;2022-10-31T08:31:36;16.53;;;8.20;;
3589;SDS011;1809;48.470;9.226;2022-10-31T08:34:01;13.27;;;8.23;;
3589;SDS011;1809;48.470;9.226;2022-10-31T08:36:27;14.43;;;6.70;;
3589;SDS011;1809;48.470;9.226;2022-10-31T08:38:53;13.27;;;7.20;;
3589;SDS011;1809;48.470;9.226;2022-10-31T08:41:19;11.27;;;6.63;;
3589;SDS011;1809;48.470;9.226;2022-10-31T08:43:44;14.40;;;7.73;;
3589;SDS011;1809;48.470;9.226;2022-10-31T08:46:10;11.40;;;6.47;;
3589;SDS011;1809;48.470;9.226;2022-10-31T08:48:35;9.83;;;6.40;;
3589;SDS011;1809;48.470;9.226;2022-10-31T08:51:00;13.87;;;7.27;;
3589;SDS011;1809;48.470;9.226;2022-10-31T08:53:26;12.30;;;6.67;;
3589;SDS011;1809;48.470;9.226;2022-10-31T08:55:53;28.40;;;6.77;;
3589;SDS011;1809;48.470;9.226;2022-10-31T08:58:20;13.20;;;7.57;;
3589;SDS011;1809;48.470;9.226;2022-10-31T09:00:47;9.63;;;7.30;;
3589;SDS011;1809;48.470;9.226;2022-10-31T09:03:17;9.40;;;7.27;;
3589;SDS011;1809;48.470;9.226;2022-10-31T09:05:47;12.40;;;7.33;;
3589;SDS011;1809;48.470;9.226;2022-10-31T09:08:13;20.70;;;7.30;;
3589;SDS011;1809;48.470;9.226;2022-10-31T09:10:39;13.30;;;7.53;;
3589;SDS011;1809;48.470;9.226;2022-10-31T09:13:06;19.70;;;7.53;;
3589;SDS011;1809;48.470;9.226;2022-10-31T09:15:35;9.33;;;6.77;;
3589;SDS011;1809;48.470;9.226;2022-10-31T09:18:03;11.97;;;6.47;;
3589;SDS011;1809;48.470;9.226;2022-10-31T09:20:30;13.93;;;7.70;;
3589;SDS011;1809;48.470;9.226;2022-10-31T09:22:57;13.73;;;6.80;;
3589;SDS011;1809;48.470;9.226;2022-10-31T09:25:24;13.17;;;6.60;;
3589;SDS011;1809;48.470;9.226;2022-10-31T09:27:50;13.57;;;6.60;;
3589;SDS011;1809;48.470;9.226;2022-10-31T09:30:15;18.90;;;5.47;;
3589;SDS011;1809;48.470;9.226;2022-10-31T09:32:40;10.80;;;5.67;;
3589;SDS011;1809;48.470;9.226;2022-10-31T09:35:06;13.17;;;6.80;;
3589;SDS011;1809;48.470;9.226;2022-10-31T09:37:31;10.77;;;5.53;;
3589;SDS011;1809;48.470;9.226;2022-10-31T09:39:57;17.17;;;6.20;;
3589;SDS011;1809;48.470;9.226;2022-10-31T09:48:07;9.33;;;4.80;;
3589;SDS011;1809;48.470;9.226;2022-10-31T09:56:14;7.87;;;4.40;;
3589;SDS011;1809;48.470;9.226;2022-10-31T09:58:46;11.93;;;4.53;;
3589;SDS011;1809;48.470;9.226;2022-10-31T10:01:19;8.80;;;4.23;;
3589;SDS011;1809;48.470;9.226;2022-10-31T10:03:54;6.07;;;4.80;;
3589;SDS011;1809;48.470;9.226;2022-10-31T10:06:29;12.43;;;5.00;;
3589;SDS011;1809;48.470;9.226;2022-10-31T10:09:00;5.03;;;4.00;;
3589;SDS011;1809;48.470;9.226;2022-10-31T10:27:50;12.00;;;5.00;;
3589;SDS011;1809;48.470;9.226;2022-10-31T10:33:14;13.00;;;4.60;;
3589;SDS011;1809;48.470;9.226;2022-10-31T10:35:45;16.20;;;5.40;;
3589;SDS011;1809;48.470;9.226;2022-10-31T10:40:52;17.77;;;6.33;;
3589;SDS011;1809;48.470;9.226;2022-10-31T10:43:35;9.20;;;4.57;;
3589;SDS011;1809;48.470;9.226;2022-10-31T10:51:21;7.93;;;4.60;;
3589;SDS011;1809;48.470;9.226;2022-10-31T10:56:34;7.43;;;4.70;;
3589;SDS011;1809;48.470;9.226;2022-10-31T10:59:06;10.77;;;4.80;;
3589;SDS011;1809;48.470;9.226;2022-10-31T11:01:38;13.93;;;5.47;;
3589;SDS011;1809;48.470;9.226;2022-10-31T11:04:08;24.40;;;6.20;;
3589;SDS011;1809;48.470;9.226;2022-10-31T11:07:05;11.90;;;4.67;;
3589;SDS011;1809;48.470;9.226;2022-10-31T11:09:34;11.27;;;5.07;;
3589;SDS011;1809;48.470;9.226;2022-10-31T11:12:08;16.43;;;5.50;;
3589;SDS011;1809;48.470;9.226;2022-10-31T11:14:46;8.37;;;4.80;;
3589;SDS011;1809;48.470;9.226;2022-10-31T11:17:33;8.03;;;4.30;;
3589;SDS011;1809;48.470;9.226;2022-10-31T11:20:06;19.63;;;5.40;;
3589;SDS011;1809;48.470;9.226;2022-10-31T11:23:00;13.90;;;5.30;;
3589;SDS011;1809;48.470;9.226;2022-10-31T11:25:47;14.20;;;5.30;;
3589;SDS011;1809;48.470;9.226;2022-10-31T11:28:17;9.77;;;5.63;;
3589;SDS011;1809;48.470;9.226;2022-10-31T11:30:44;17.60;;;5.50;;
3589;SDS011;1809;48.470;9.226;2022-10-31T11:33:26;13.60;;;5.97;;
3589;SDS011;1809;48.470;9.226;2022-10-31T11:35:56;9.17;;;4.93;;
3589;SDS011;1809;48.470;9.226;2022-10-31T11:38:39;8.00;;;6.40;;
3589;SDS011;1809;48.470;9.226;2022-10-31T11:43:38;12.07;;;4.97;;
3589;SDS011;1809;48.470;9.226;2022-10-31T11:46:10;9.23;;;5.27;;
3589;SDS011;1809;48.470;9.226;2022-10-31T11:48:40;8.33;;;5.07;;
3589;SDS011;1809;48.470;9.226;2022-10-31T11:51:48;8.70;;;5.23;;
3589;SDS011;1809;48.470;9.226;2022-10-31T11:54:15;18.10;;;4.90;;
3589;SDS011;1809;48.470;9.226;2022-10-31T11:56:49;10.70;;;4.80;;
3589;SDS011;1809;48.470;9.226;2022-10-31T11:59:17;11.20;;;4.77;;
3589;SDS011;1809;48.470;9.226;2022-10-31T12:01:56;10.90;;;5.50;;
3589;SDS011;1809;48.470;9.226;2022-10-31T12:04:36;8.10;;;4.50;;
3589;SDS011;1809;48.470;9.226;2022-10-31T12:07:06;13.20;;;5.63;;
3589;SDS011;1809;48.470;9.226;2022-10-31T12:09:35;11.03;;;6.20;;
3589;SDS011;1809;48.470;9.226;2022-10-31T12:20:51;9.07;;;5.77;;
3589;SDS011;1809;48.470;9.226;2022-10-31T12:23:33;22.93;;;6.60;;
3589;SDS011;1809;48.470;9.226;2022-10-31T12:45:35;12.83;;;6.53;;
3589;SDS011;1809;48.470;9.226;2022-10-31T12:50:57;26.80;;;14.73;;
3589;SDS011;1809;48.470;9.226;2022-10-31T12:56:40;10.37;;;6.10;;
3589;SDS011;1809;48.470;9.226;2022-10-31T13:01:57;14.70;;;5.83;;
3589;SDS011;1809;48.470;9.226;2022-10-31T13:07:23;14.77;;;6.40;;
3589;SDS011;1809;48.470;9.226;2022-10-31T13:10:02;20.33;;;6.43;;
3589;SDS011;1809;48.470;9.226;2022-10-31T13:12:34;15.00;;;7.60;;
3589;SDS011;1809;48.470;9.226;2022-10-31T13:15:03;19.97;;;7.30;;
3589;SDS011;1809;48.470;9.226;2022-10-31T13:17:38;9.17;;;6.17;;
3589;SDS011;1809;48.470;9.226;2022-10-31T13:22:46;18.83;;;6.90;;
3589;SDS011;1809;48.470;9.226;2022-10-31T13:25:18;12.53;;;7.47;;
3589;SDS011;1809;48.470;9.226;2022-10-31T13:27:51;12.73;;;7.77;;
3589;SDS011;1809;48.470;9.226;2022-10-31T13:30:20;12.20;;;6.73;;
3589;SDS011;1809;48.470;9.226;2022-10-31T13:33:05;17.40;;;8.40;;
3589;SDS011;1809;48.470;9.226;2022-10-31T13:46:21;9.43;;;5.67;;
3589;SDS011;1809;48.470;9.226;2022-10-31T13:48:48;11.97;;;5.60;;
3589;SDS011;1809;48.470;9.226;2022-10-31T13:51:13;15.03;;;7.60;;
3589;SDS011;1809;48.470;9.226;2022-10-31T14:01:30;17.00;;;7.67;;
3589;SDS011;1809;48.470;9.226;2022-10-31T14:04:08;17.57;;;9.00;;
3589;SDS011;1809;48.470;9.226;2022-10-31T14:07:04;21.90;;;7.17;;
3589;SDS011;1809;48.470;9.226;2022-10-31T14:12:34;8.10;;;5.90;;
3589;SDS011;1809;48.470;9.226;2022-10-31T14:15:05;19.10;;;7.07;;
3589;SDS011;1809;48.470;9.226;2022-10-31T14:17:45;16.43;;;7.20;;
3589;SDS011;1809;48.470;9.226;2022-10-31T14:20:34;15.40;;;6.60;;
3589;SDS011;1809;48.470;9.226;2022-10-31T14:25:37;19.70;;;7.40;;
3589;SDS011;1809;48.470;9.226;2022-10-31T14:28:05;17.33;;;6.33;;
3589;SDS011;1809;48.470;9.226;2022-10-31T14:30:51;14.30;;;5.83;;
3589;SDS011;1809;48.470;9.226;2022-10-31T14:33:18;15.40;;;6.70;;
3589;SDS011;1809;48.470;9.226;2022-10-31T14:36:03;10.67;;;6.73;;
3589;SDS011;1809;48.470;9.226;2022-10-31T14:50:01;20.40;;;7.70;;
3589;SDS011;1809;48.470;9.226;2022-10-31T14:52:30;25.43;;;7.60;;
3589;SDS011;1809;48.470;9.226;2022-10-31T14:54:56;12.53;;;7.57;;
3589;SDS011;1809;48.470;9.226;2022-10-31T14:59:55;18.50;;;5.70;;
3589;SDS011;1809;48.470;9.226;2022-10-31T15:02:27;12.07;;;6.40;;
3589;SDS011;1809;48.470;9.226;2022-10-31T15:04:59;16.70;;;5.87;;
3589;SDS011;1809;48.470;9.226;2022-10-31T15:07:26;10.60;;;6.43;;
3589;SDS011;1809;48.470;9.226;2022-10-31T15:09:59;11.93;;;6.47;;
3589;SDS011;1809;48.470;9.226;2022-10-31T15:12:43;10.00;;;6.50;;
3589;SDS011;1809;48.470;9.226;2022-10-31T15:15:12;15.77;;;7.13;;
3589;SDS011;1809;48.470;9.226;2022-10-31T15:17:48;21.27;;;7.90;;
3589;SDS011;1809;48.470;9.226;2022-10-31T15:20:23;10.33;;;6.63;;
3589;SDS011;1809;48.470;9.226;2022-10-31T15:22:52;10.10;;;7.00;;
3589;SDS011;1809;48.470;9.226;2022-10-31T15:25:24;13.83;;;7.03;;
3589;SDS011;1809;48.470;9.226;2022-10-31T15:27:52;11.77;;;7.43;;
3589;SDS011;1809;48.470;9.226;2022-10-31T15:32:45;8.40;;;6.40;;
3589;SDS011;1809;48.470;9.226;2022-10-31T15:35:14;61.53;;;29.37;;
3589;SDS011;1809;48.470;9.226;2022-10-31T15:37:46;24.60;;;14.37;;
3589;SDS011;1809;48.470;9.226;2022-10-31T15:40:15;18.97;;;13.00;;
3589;SDS011;1809;48.470;9.226;2022-10-31T15:42:43;34.97;;;12.50;;
3589;SDS011;1809;48.470;9.226;2022-10-31T15:45:21;19.40;;;10.17;;
3589;SDS011;1809;48.470;9.226;2022-10-31T15:48:12;16.77;;;9.97;;
3589;SDS011;1809;48.470;9.226;2022-10-31T15:50:45;20.13;;;10.47;;
3589;SDS011;1809;48.470;9.226;2022-10-31T15:55:50;16.17;;;8.50;;
3589;SDS011;1809;48.470;9.226;2022-10-31T15:58:19;20.70;;;8.80;;
3589;SDS011;1809;48.470;9.226;2022-10-31T16:00:55;16.27;;;8.90;;
3589;SDS011;1809;48.470;9.226;2022-10-31T16:03:23;21.97;;;9.47;;
3589;SDS011;1809;48.470;9.226;2022-10-31T16:05:55;23.20;;;11.47;;
3589;SDS011;1809;48.470;9.226;2022-10-31T16:10:53;32.20;;;18.20;;
3589;SDS011;1809;48.470;9.226;2022-10-31T16:13:22;29.50;;;15.23;;
3589;SDS011;1809;48.470;9.226;2022-10-31T16:15:53;32.10;;;16.17;;
3589;SDS011;1809;48.470;9.226;2022-10-31T16:18:22;23.20;;;14.73;;
3589;SDS011;1809;48.470;9.226;2022-10-31T16:20:51;31.07;;;14.20;;
3589;SDS011;1809;48.470;9.226;2022-10-31T16:23:19;22.37;;;13.00;;
3589;SDS011;1809;48.470;9.226;2022-10-31T16:25:46;21.73;;;12.10;;
3589;SDS011;1809;48.470;9.226;2022-10-31T16:28:16;23.73;;;14.07;;
3589;SDS011;1809;48.470;9.226;2022-10-31T16:30:45;23.07;;;13.30;;
3589;SDS011;1809;48.470;9.226;2022-10-31T16:33:26;26.53;;;14.70;;
3589;SDS011;1809;48.470;9.226;2022-10-31T16:36:01;33.03;;;15.33;;
3589;SDS011;1809;48.470;9.226;2022-10-31T16:38:46;28.27;;;15.10;;
3589;SDS011;1809;48.470;9.226;2022-10-31T16:41:12;27.87;;;16.70;;
3589;SDS011;1809;48.470;9.226;2022-10-31T16:43:37;26.23;;;16.93;;
3589;SDS011;1809;48.470;9.226;2022-10-31T16:46:02;25.93;;;14.67;;
3589;SDS011;1809;48.470;9.226;2022-10-31T16:48:28;27.27;;;15.37;;
3589;SDS011;1809;48.470;9.226;2022-10-31T16:50:53;23.00;;;13.30;;
3589;SDS011;1809;48.470;9.226;2022-10-31T16:53:19;20.00;;;13.23;;
3589;SDS011;1809;48.470;9.226;2022-10-31T16:55:45;21.10;;;13.43;;
3589;SDS011;1809;48.470;9.226;2022-10-31T16:58:26;19.30;;;10.77;;
3589;SDS011;1809;48.470;9.226;2022-10-31T17:00:54;16.90;;;10.17;;
3589;SDS011;1809;48.470;9.226;2022-10-31T17:03:20;20.40;;;12.03;;
3589;SDS011;1809;48.470;9.226;2022-10-31T17:05:46;23.63;;;11.83;;
3589;SDS011;1809;48.470;9.226;2022-10-31T17:08:11;18.37;;;11.43;;
3589;SDS011;1809;48.470;9.226;2022-10-31T17:10:37;25.00;;;13.30;;
3589;SDS011;1809;48.470;9.226;2022-10-31T17:13:05;25.17;;;12.00;;
3589;SDS011;1809;48.470;9.226;2022-10-31T17:15:40;18.10;;;11.73;;
3589;SDS011;1809;48.470;9.226;2022-10-31T17:18:12;15.00;;;12.30;;
3589;SDS011;1809;48.470;9.226;2022-10-31T17:20:38;25.63;;;13.57;;
3589;SDS011;1809;48.470;9.226;2022-10-31T17:23:04;25.77;;;14.30;;
3589;SDS011;1809;48.470;9.226;2022-10-31T17:25:30;23.27;;;13.70;;
3589;SDS011;1809;48.470;9.226;2022-10-31T17:27:58;16.73;;;11.80;;
3589;SDS011;1809;48.470;9.226;2022-10-31T17:30:23;23.67;;;13.73;;
3589;SDS011;1809;48.470;9.226;2022-10-31T17:32:50;25.83;;;13.60;;
3589;SDS011;1809;48.470;9.226;2022-10-31T17:35:16;35.03;;;16.90;;
3589;SDS011;1809;48.470;9.226;2022-10-31T17:37:43;29.90;;;15.60;;
3589;SDS011;1809;48.470;9.226;2022-10-31T17:40:10;21.97;;;14.83;;
3589;SDS011;1809;48.470;9.226;2022-10-31T17:42:40;24.47;;;15.57;;
3589;SDS011;1809;48.470;9.226;2022-10-31T17:45:05;18.47;;;12.90;;
3589;SDS011;1809;48.470;9.226;2022-10-31T17:47:32;22.93;;;14.73;;
3589;SDS011;1809;48.470;9.226;2022-10-31T17:49:58;24.97;;;15.30;;
3589;SDS011;1809;48.470;9.226;2022-10-31T17:52:23;23.77;;;15.50;;
3589;SDS011;1809;48.470;9.226;2022-10-31T17:54:49;26.77;;;16.50;;
3589;SDS011;1809;48.470;9.226;2022-10-31T17:57:14;35.97;;;16.53;;
3589;SDS011;1809;48.470;9.226;2022-10-31T17:59:40;23.53;;;16.50;;
3589;SDS011;1809;48.470;9.226;2022-10-31T18:02:05;29.63;;;19.90;;